Time;durP1;ratioP1;P1;durP2;ratioP2;P2;SDS_P1;SDS_P2;PMS_P1;PMS_P2;Temp;Humidity;BMP_temperature;BMP_pressure;BME280_temperature;BME280_humidity;BME280_pressure;Samples;Min_cycle;Max_cycle;Signal;HPM_P1;HPM_P2
2021/12/19 00:01:48;;;;;;;;;;;;;;;5.83;100.00;101851.94;5076309;28;1420;-72
2021/12/19 00:04:24;;;;;;;;;;;;;;;5.81;100.00;101842.16;5095065;28;902;-72
2021/12/19 00:12:23;;;;;;;;;;;;;;;5.79;100.00;101823.38;5032547;28;1361;-74
2021/12/19 00:14:49;;;;;;;;;;;;;;;5.79;100.00;101825.22;5016496;28;1034;-75
2021/12/19 00:17:16;;;;;;;;;;;;;;;5.80;100.00;101817.06;5032397;28;2021;-74
2021/12/19 00:19:43;;;;;;;;;;;;;;;5.81;100.00;101821.50;5032131;28;1814;-74
2021/12/19 00:22:10;;;;;;;;;;;;;;;5.82;100.00;101803.50;5014111;28;1269;-74
2021/12/19 00:24:37;;;;;;;;;;;;;;;5.85;100.00;101793.47;4996664;28;1452;-74
2021/12/19 00:27:04;;;;;;;;;;;;;;;5.84;100.00;101809.72;5013014;28;962;-75
2021/12/19 00:29:30;;;;;;;;;;;;;;;5.85;100.00;101803.38;5014456;28;938;-75
2021/12/19 00:31:57;;;;;;;;;;;;;;;5.87;100.00;101807.75;5014422;28;1274;-75
2021/12/19 00:34:23;;;;;;;;;;;;;;;5.85;100.00;101808.75;5013316;28;679;-74
2021/12/19 00:36:51;;;;;;;;;;;;;;;5.90;100.00;101811.25;5013887;28;1911;-74
2021/12/19 00:39:18;;;;;;;;;;;;;;;5.92;100.00;101806.66;5013322;28;773;-74
2021/12/19 00:41:44;;;;;;;;;;;;;;;5.90;100.00;101800.47;5014140;28;1269;-75
2021/12/19 00:44:11;;;;;;;;;;;;;;;5.91;100.00;101794.16;5009167;28;1473;-74
2021/12/19 00:46:46;;;;;;;;;;;;;;;5.89;100.00;101783.41;4994133;28;802;-75
2021/12/19 00:49:13;;;;;;;;;;;;;;;5.87;100.00;101779.94;4994415;28;1087;-74
2021/12/19 00:51:39;;;;;;;;;;;;;;;5.91;100.00;101765.38;4994220;28;1318;-74
2021/12/19 00:54:09;;;;;;;;;;;;;;;5.86;100.00;101768.25;4995241;28;1062;-74
2021/12/19 00:56:36;;;;;;;;;;;;;;;5.82;100.00;101772.03;4993830;28;1984;-74
2021/12/19 00:59:03;;;;;;;;;;;;;;;5.81;100.00;101764.91;5009924;28;1490;-75
2021/12/19 01:01:29;;;;;;;;;;;;;;;5.84;100.00;101758.53;5013846;28;1281;-75
2021/12/19 01:03:55;;;;;;;;;;;;;;;5.85;100.00;101768.34;5013690;28;693;-75
2021/12/19 01:06:22;;;;;;;;;;;;;;;5.86;100.00;101768.25;5012902;28;1464;-75
2021/12/19 01:08:48;;;;;;;;;;;;;;;5.86;100.00;101768.25;4996026;28;963;-75
2021/12/19 01:11:16;;;;;;;;;;;;;;;5.86;100.00;101756.63;5012082;28;1318;-74
2021/12/19 01:13:42;;;;;;;;;;;;;;;5.85;100.00;101765.63;4995841;28;990;-74
2021/12/19 01:16:09;;;;;;;;;;;;;;;5.86;100.00;101770.09;5013217;28;768;-74
2021/12/19 01:18:35;;;;;;;;;;;;;;;5.85;100.00;101763.84;5012773;28;1918;-72
2021/12/19 01:21:01;;;;;;;;;;;;;;;5.84;100.00;101766.59;4995563;28;1340;-74
2021/12/19 01:23:28;;;;;;;;;;;;;;;5.85;100.00;101758.44;5013314;28;776;-74
2021/12/19 01:25:54;;;;;;;;;;;;;;;5.82;100.00;101755.88;5012872;28;943;-74
2021/12/19 01:28:21;;;;;;;;;;;;;;;5.82;100.00;101747.78;5011882;28;1025;-75
2021/12/19 01:30:48;;;;;;;;;;;;;;;5.78;100.00;101745.31;5011972;28;1283;-74
2021/12/19 01:33:14;;;;;;;;;;;;;;;5.78;100.00;101743.47;5012920;28;1485;-74
2021/12/19 01:35:40;;;;;;;;;;;;;;;5.79;100.00;101741.69;5012804;28;908;-73
2021/12/19 01:38:07;;;;;;;;;;;;;;;5.77;100.00;101736.38;4995511;28;1973;-74
2021/12/19 01:40:33;;;;;;;;;;;;;;;5.78;100.00;101726.44;5012915;28;1291;-75
2021/12/19 01:43:00;;;;;;;;;;;;;;;5.79;100.00;101721.00;5012979;28;951;-74
2021/12/19 01:45:28;;;;;;;;;;;;;;;5.78;100.00;101721.94;5012849;28;892;-75
2021/12/19 01:47:55;;;;;;;;;;;;;;;5.77;100.00;101720.19;5012798;28;888;-74
2021/12/19 01:50:22;;;;;;;;;;;;;;;5.77;100.00;101717.50;5012943;28;1273;-74
2021/12/19 01:52:49;;;;;;;;;;;;;;;5.77;100.00;101725.59;4994606;28;1422;-74
2021/12/19 01:55:15;;;;;;;;;;;;;;;5.76;100.00;101710.34;5012859;28;1006;-74
2021/12/19 01:57:41;;;;;;;;;;;;;;;5.73;100.00;101694.31;5012515;28;1967;-74
2021/12/19 02:00:17;;;;;;;;;;;;;;;5.77;100.00;101701.34;5012801;28;1286;-72
2021/12/19 02:02:44;;;;;;;;;;;;;;;5.73;100.00;101707.78;5012689;28;979;-72
2021/12/19 02:05:11;;;;;;;;;;;;;;;5.76;100.00;101707.66;5012954;28;994;-73
2021/12/19 02:07:38;;;;;;;;;;;;;;;5.75;100.00;101705.03;5012352;28;832;-72
2021/12/19 02:10:04;;;;;;;;;;;;;;;5.74;100.00;101709.53;5012093;28;1510;-73
2021/12/19 02:12:31;;;;;;;;;;;;;;;5.75;100.00;101699.66;5012817;28;1062;-73
2021/12/19 02:14:57;;;;;;;;;;;;;;;5.74;100.00;101714.94;5012825;28;773;-73
2021/12/19 02:17:23;;;;;;;;;;;;;;;5.71;100.00;101715.06;5012231;28;1977;-72
2021/12/19 02:19:51;;;;;;;;;;;;;;;5.71;100.00;101709.69;4994486;28;1375;-73
2021/12/19 02:22:18;;;;;;;;;;;;;;;5.71;100.00;101709.69;5012465;28;951;-72
2021/12/19 02:24:45;;;;;;;;;;;;;;;5.75;100.00;101703.22;5012531;28;776;-72
2021/12/19 02:27:11;;;;;;;;;;;;;;;5.75;100.00;101705.03;5012240;28;891;-73
2021/12/19 02:29:37;;;;;;;;;;;;;;;5.73;100.00;101680.84;5012131;28;1431;-73
2021/12/19 02:32:05;;;;;;;;;;;;;;;5.75;100.00;101684.34;5011534;28;1351;-73
2021/12/19 02:34:38;;;;;;;;;;;;;;;5.76;100.00;101702.28;4995032;28;948;-73
2021/12/19 02:37:11;;;;;;;;;;;;;;;5.77;100.00;101704.03;5012196;28;1906;-73
2021/12/19 02:40:04;;;;;;;;;;;;;;;5.75;100.00;101692.44;5012519;28;1006;-73
2021/12/19 02:48:21;;;;;;;;;;;;;;;5.75;100.00;101684.34;4971272;28;1112;-74
2021/12/19 02:50:51;;;;;;;;;;;;;;;5.75;100.00;101662.78;4971087;28;1335;-72
2021/12/19 02:53:22;;;;;;;;;;;;;;;5.77;100.00;101651.94;4989697;28;1025;-73
2021/12/19 02:55:50;;;;;;;;;;;;;;;5.76;100.00;101645.69;5012220;28;968;-74
2021/12/19 02:58:16;;;;;;;;;;;;;;;5.77;100.00;101639.38;4994735;28;1915;-73
2021/12/19 03:00:42;;;;;;;;;;;;;;;5.75;100.00;101646.63;5012520;28;1311;-74
2021/12/19 03:03:09;;;;;;;;;;;;;;;5.76;100.00;101648.38;4998004;28;1454;-73
2021/12/19 03:05:37;;;;;;;;;;;;;;;5.77;100.00;101627.69;5015309;28;1513;-74
2021/12/19 03:08:04;;;;;;;;;;;;;;;5.74;100.00;101644.88;5015662;28;1022;-73
2021/12/19 03:13:27;;;;;;;;;;;;;;;5.78;100.00;101640.22;4997428;28;1164;-74
2021/12/19 03:18:38;;;;;;;;;;;;;;;5.79;100.00;101628.50;4998148;28;1914;-75
2021/12/19 03:21:05;;;;;;;;;;;;;;;5.79;100.00;101633.91;5015055;28;1415;-73
2021/12/19 03:23:32;;;;;;;;;;;;;;;5.79;100.00;101642.84;5016090;28;931;-73
2021/12/19 03:25:58;;;;;;;;;;;;;;;5.81;100.00;101640.06;4997342;28;833;-73
2021/12/19 03:28:26;;;;;;;;;;;;;;;5.80;100.00;101639.22;5015139;28;778;-73
2021/12/19 03:30:52;;;;;;;;;;;;;;;5.79;100.00;101645.53;5014660;28;1407;-72
2021/12/19 03:33:19;;;;;;;;;;;;;;;5.81;100.00;101634.69;5015201;28;899;-73
2021/12/19 03:35:45;;;;;;;;;;;;;;;5.80;100.00;101646.41;4997551;28;769;-72
2021/12/19 03:38:13;;;;;;;;;;;;;;;5.80;100.00;101628.44;4997479;28;1987;-73
2021/12/19 03:40:43;;;;;;;;;;;;;;;5.80;100.00;101631.13;5014458;28;1613;-73
2021/12/19 03:43:11;;;;;;;;;;;;;;;5.81;100.00;101621.22;4997766;28;901;-72
2021/12/19 03:45:39;;;;;;;;;;;;;;;5.80;100.00;101635.63;5014822;28;895;-73
2021/12/19 03:48:10;;;;;;;;;;;;;;;5.81;100.00;101622.09;5014945;28;1046;-74
2021/12/19 03:50:36;;;;;;;;;;;;;;;5.84;100.00;101623.78;5014881;28;1299;-74
2021/12/19 03:53:03;;;;;;;;;;;;;;;5.83;100.00;101635.50;5015051;28;810;-74
2021/12/19 03:55:29;;;;;;;;;;;;;;;5.85;100.00;101622.81;5014421;28;1521;-73
2021/12/19 03:57:57;;;;;;;;;;;;;;;5.84;100.00;101627.34;4997056;28;1976;-74
2021/12/19 04:00:26;;;;;;;;;;;;;;;5.84;100.00;101616.56;5014584;28;1381;-73
2021/12/19 04:02:55;;;;;;;;;;;;;;;5.84;100.00;101613.88;5014757;28;995;-73
2021/12/19 04:05:21;;;;;;;;;;;;;;;5.84;100.00;101619.25;5014677;28;833;-74
2021/12/19 04:07:48;;;;;;;;;;;;;;;5.85;100.00;101625.50;5014733;28;971;-74
2021/12/19 04:10:14;;;;;;;;;;;;;;;5.84;100.00;101616.56;5014506;28;1279;-74
2021/12/19 04:12:42;;;;;;;;;;;;;;;5.81;100.00;101622.09;5014807;28;923;-74
2021/12/19 04:15:09;;;;;;;;;;;;;;;5.82;100.00;101602.28;4996603;28;1458;-74
2021/12/19 04:17:35;;;;;;;;;;;;;;;5.82;100.00;101615.75;4996762;28;1886;-74
2021/12/19 04:20:03;;;;;;;;;;;;;;;5.82;100.00;101610.34;4996970;28;1287;-74
2021/12/19 04:22:30;;;;;;;;;;;;;;;5.82;100.00;101610.34;4996826;28;1054;-74
2021/12/19 04:24:56;;;;;;;;;;;;;;;5.81;100.00;101624.81;5014356;28;848;-74
2021/12/19 04:27:23;;;;;;;;;;;;;;;5.81;100.00;101608.63;5014115;28;1058;-74
2021/12/19 04:29:50;;;;;;;;;;;;;;;5.80;100.00;101603.28;5012947;28;1306;-73
2021/12/19 04:32:18;;;;;;;;;;;;;;;5.79;100.00;101605.13;5014155;28;1045;-74
2021/12/19 04:34:44;;;;;;;;;;;;;;;5.77;100.00;101606.13;5014117;28;904;-74
2021/12/19 04:37:31;;;;;;;;;;;;;;;5.76;100.00;101602.59;5012431;28;1172;-74
2021/12/19 04:40:05;;;;;;;;;;;;;;;5.73;100.00;101605.41;4996062;28;1458;-74
2021/12/19 04:43:36;;;;;;;;;;;;;;;5.72;100.00;101619.84;4996424;28;991;-75
2021/12/19 04:51:26;;;;;;;;;;;;;;;5.52;100.00;101605.47;5013775;28;1283;-74
2021/12/19 04:54:04;;;;;;;;;;;;;;;5.51;100.00;101606.41;5013893;28;884;-74
2021/12/19 04:56:42;;;;;;;;;;;;;;;5.46;100.00;101608.44;4996113;28;714;-74
2021/12/19 04:59:25;;;;;;;;;;;;;;;5.42;100.00;101608.66;5013982;28;1973;-74
2021/12/19 05:02:10;;;;;;;;;;;;;;;5.43;100.00;101616.66;5013617;28;1387;-74
2021/12/19 05:15:46;;;;;;;;;;;;;;;5.35;100.00;101592.75;4979430;28;1189;-74
2021/12/19 05:18:12;;;;;;;;;;;;;;;5.34;100.00;101580.28;5013035;28;1906;-75
2021/12/19 05:20:49;;;;;;;;;;;;;;;5.36;100.00;101591.81;5013489;28;1235;-74
2021/12/19 05:23:23;;;;;;;;;;;;;;;5.39;100.00;101595.34;4996028;28;757;-74
2021/12/19 05:25:50;;;;;;;;;;;;;;;5.43;100.00;101580.78;5012912;28;1018;-75
2021/12/19 05:28:17;;;;;;;;;;;;;;;5.39;100.00;101569.28;5013242;28;829;-75
2021/12/19 05:30:43;;;;;;;;;;;;;;;5.35;100.00;101578.44;5013197;28;1373;-76
2021/12/19 05:33:09;;;;;;;;;;;;;;;5.36;100.00;101574.81;5013328;28;828;-75
2021/12/19 05:35:58;;;;;;;;;;;;;;;5.39;100.00;101579.19;4995269;28;1509;-74
2021/12/19 05:46:33;;;;;;;;;;;;;;;5.41;100.00;101567.41;4981487;28;1173;-72
2021/12/19 05:48:59;;;;;;;;;;;;;;;5.40;100.00;101572.84;5011794;28;1050;-71
2021/12/19 05:51:26;;;;;;;;;;;;;;;5.38;100.00;101572.91;5012865;28;1301;-75
2021/12/19 05:53:52;;;;;;;;;;;;;;;5.34;100.00;101564.13;5012904;28;1011;-72
2021/12/19 05:56:20;;;;;;;;;;;;;;;5.29;100.00;101560.75;5012762;28;979;-72
2021/12/19 05:58:46;;;;;;;;;;;;;;;5.28;100.00;101561.69;5012468;28;1918;-73
2021/12/19 06:01:12;;;;;;;;;;;;;;;5.28;100.00;101572.47;5012609;28;1295;-73
2021/12/19 06:03:38;;;;;;;;;;;;;;;5.27;100.00;101559.06;5012227;28;1006;-74
2021/12/19 06:06:06;;;;;;;;;;;;;;;5.24;100.00;101549.31;4994910;28;983;-73
2021/12/19 06:08:32;;;;;;;;;;;;;;;5.25;100.00;101559.16;4995178;28;892;-73
2021/12/19 06:10:58;;;;;;;;;;;;;;;5.25;100.00;101556.47;5030702;22;3709;-73
2021/12/19 06:13:26;;;;;;;;;;;;;;;5.23;100.00;101554.78;5012456;28;1072;-74
2021/12/19 06:15:55;;;;;;;;;;;;;;;5.18;100.00;101554.97;5012688;28;955;-73
2021/12/19 06:18:21;;;;;;;;;;;;;;;5.17;100.00;101558.59;5013724;28;1902;-71
2021/12/19 06:20:47;;;;;;;;;;;;;;;5.16;100.00;101560.44;5006335;28;2197;-72
2021/12/19 06:23:14;;;;;;;;;;;;;;;5.15;100.00;101545.22;5012529;28;1227;-73
2021/12/19 06:25:45;;;;;;;;;;;;;;;5.10;100.00;101536.47;4994801;28;1195;-73
2021/12/19 06:28:11;;;;;;;;;;;;;;;5.10;100.00;101541.84;5012766;28;797;-73
2021/12/19 06:30:39;;;;;;;;;;;;;;;5.05;100.00;101541.22;4994938;28;1267;-74
2021/12/19 06:33:05;;;;;;;;;;;;;;;5.03;100.00;101524.25;5013006;28;861;-74
2021/12/19 06:35:32;;;;;;;;;;;;;;;5.06;100.00;101528.63;4995277;28;1082;-74
2021/12/19 06:37:58;;;;;;;;;;;;;;;5.01;100.00;101523.44;4998561;28;1899;-74
2021/12/19 06:40:25;;;;;;;;;;;;;;;5.02;100.00;101536.84;5016446;28;1014;-72
2021/12/19 06:42:51;;;;;;;;;;;;;;;5.01;100.00;101542.28;5016071;28;1269;-73
2021/12/19 06:45:17;;;;;;;;;;;;;;;4.99;100.00;101541.47;5016123;28;1010;-73
2021/12/19 06:47:45;;;;;;;;;;;;;;;5.00;100.00;101544.09;5015765;28;817;-74
2021/12/19 06:50:12;;;;;;;;;;;;;;;5.02;100.00;101539.53;5016117;28;938;-74
2021/12/19 06:52:39;;;;;;;;;;;;;;;4.99;100.00;101528.88;4998355;28;1387;-75
2021/12/19 06:55:07;;;;;;;;;;;;;;;5.02;100.00;101531.47;5016041;28;1022;-75
2021/12/19 06:57:33;;;;;;;;;;;;;;;4.99;100.00;101526.19;5015592;28;835;-73
2021/12/19 07:00:00;;;;;;;;;;;;;;;5.01;100.00;101528.81;5015689;28;1910;-72
2021/12/19 07:02:26;;;;;;;;;;;;;;;5.03;100.00;101524.25;4987216;28;1500;-72
2021/12/19 07:04:54;;;;;;;;;;;;;;;5.06;100.00;101523.25;5010546;28;1392;-73
2021/12/19 07:07:21;;;;;;;;;;;;;;;5.07;100.00;101527.69;5015147;28;1182;-74
2021/12/19 07:09:48;;;;;;;;;;;;;;;5.06;100.00;101524.09;5010566;28;1547;-74
2021/12/19 07:12:14;;;;;;;;;;;;;;;5.05;100.00;101517.00;4996406;28;1412;-77
2021/12/19 07:14:43;;;;;;;;;;;;;;;5.07;100.00;101523.16;5011583;28;1147;-76
2021/12/19 07:17:10;;;;;;;;;;;;;;;5.06;100.00;101513.34;5015210;28;1622;-73
2021/12/19 07:19:36;;;;;;;;;;;;;;;5.06;100.00;101524.09;4981544;28;1981;-73
2021/12/19 07:22:04;;;;;;;;;;;;;;;5.01;100.00;101515.34;4997250;28;1579;-73
2021/12/19 07:24:30;;;;;;;;;;;;;;;5.02;100.00;101520.69;5015437;28;936;-72
2021/12/19 07:26:57;;;;;;;;;;;;;;;5.00;100.00;101513.63;4999093;28;1515;-71
2021/12/19 07:29:23;;;;;;;;;;;;;;;5.00;100.00;101509.13;4996777;28;1602;-73
2021/12/19 07:31:49;;;;;;;;;;;;;;;5.00;100.00;101508.25;4978048;28;1306;-73
2021/12/19 07:34:15;;;;;;;;;;;;;;;5.00;100.00;101510.94;5009116;28;1700;-73
2021/12/19 07:36:48;;;;;;;;;;;;;;;5.00;100.00;101505.56;4997328;28;1244;-74
2021/12/19 07:39:25;;;;;;;;;;;;;;;4.99;100.00;101506.50;4995795;28;1898;-74
2021/12/19 07:41:51;;;;;;;;;;;;;;;4.97;100.00;101501.19;4998879;28;1687;-73
2021/12/19 07:44:18;;;;;;;;;;;;;;;4.97;100.00;101493.13;4995374;28;1356;-71
2021/12/19 07:46:44;;;;;;;;;;;;;;;4.97;100.00;101489.53;5002385;28;1531;-70
2021/12/19 07:49:10;;;;;;;;;;;;;;;4.91;100.00;101473.69;5032658;28;1573;-69
2021/12/19 07:51:36;;;;;;;;;;;;;;;4.88;100.00;101481.88;5013078;28;1563;-71
2021/12/19 07:54:03;;;;;;;;;;;;;;;4.86;100.00;101477.47;5014677;28;880;-74
2021/12/19 07:56:31;;;;;;;;;;;;;;;4.86;100.00;101474.78;4977717;28;1536;-73
2021/12/19 07:58:57;;;;;;;;;;;;;;;4.88;100.00;101489.94;5006744;28;1914;-76
2021/12/19 08:01:24;;;;;;;;;;;;;;;4.89;100.00;101479.16;5003560;28;1554;-73
2021/12/19 08:03:50;;;;;;;;;;;;;;;4.88;100.00;101484.56;4999501;28;1882;-75
2021/12/19 08:06:16;;;;;;;;;;;;;;;4.85;100.00;101478.41;4994681;28;769;-75
2021/12/19 08:08:47;;;;;;;;;;;;;;;4.83;100.00;101480.28;4977084;28;932;-74
2021/12/19 08:13:59;;;;;;;;;;;;;;;4.83;100.00;101468.66;4994151;28;798;-73
2021/12/19 08:16:25;;;;;;;;;;;;;;;4.83;100.00;101464.13;5007630;28;2087;-75
2021/12/19 08:18:52;;;;;;;;;;;;;;;4.81;100.00;101466.03;5011657;28;1981;-74
2021/12/19 08:21:19;;;;;;;;;;;;;;;4.84;100.00;101459.66;5014219;28;1376;-73
2021/12/19 08:23:45;;;;;;;;;;;;;;;4.81;100.00;101457.97;5014214;28;1021;-76
2021/12/19 08:26:11;;;;;;;;;;;;;;;4.83;100.00;101448.00;5013877;28;900;-76
2021/12/19 08:28:38;;;;;;;;;;;;;;;4.83;100.00;101439.06;5012262;28;2104;-75
2021/12/19 08:31:06;;;;;;;;;;;;;;;4.84;100.00;101443.50;5014041;28;1387;-74
2021/12/19 08:33:32;;;;;;;;;;;;;;;4.82;100.00;101438.19;5012606;28;1203;-75
2021/12/19 08:35:59;;;;;;;;;;;;;;;4.83;100.00;101437.22;5013720;28;1223;-75
2021/12/19 08:38:25;;;;;;;;;;;;;;;4.85;100.00;101434.47;5013976;28;1903;-73
2021/12/19 08:40:51;;;;;;;;;;;;;;;4.89;100.00;101446.84;5013853;28;1372;-73
2021/12/19 08:43:20;;;;;;;;;;;;;;;4.87;100.00;101437.97;5014063;28;1029;-72
2021/12/19 08:45:47;;;;;;;;;;;;;;;4.90;100.00;101445.03;5013727;28;879;-72
2021/12/19 08:48:17;;;;;;;;;;;;;;;4.88;100.00;101444.22;5014009;28;1188;-74
2021/12/19 08:50:43;;;;;;;;;;;;;;;4.89;100.00;101432.50;5030666;28;1398;-76
2021/12/19 08:53:09;;;;;;;;;;;;;;;4.88;100.00;101428.06;5033650;28;915;-76
2021/12/19 08:55:36;;;;;;;;;;;;;;;4.91;100.00;101426.13;5015592;28;1315;-75
2021/12/19 08:58:02;;;;;;;;;;;;;;;4.94;100.00;101417.91;5015388;28;908;-75
2021/12/19 09:00:30;;;;;;;;;;;;;;;4.96;100.00;101417.84;5014896;28;1977;-74
2021/12/19 09:02:57;;;;;;;;;;;;;;;4.95;100.00;101424.16;5033330;28;1287;-74
2021/12/19 09:05:26;;;;;;;;;;;;;;;4.96;100.00;101417.84;4982059;28;1506;-74
2021/12/19 09:07:52;;;;;;;;;;;;;;;4.96;100.00;101412.47;5013158;28;951;-72
2021/12/19 09:10:19;;;;;;;;;;;;;;;4.96;100.00;101423.22;5013649;28;832;-72
2021/12/19 09:12:45;;;;;;;;;;;;;;;4.96;100.00;101425.91;4995719;28;1305;-71
2021/12/19 09:15:12;;;;;;;;;;;;;;;4.97;100.00;101417.78;4996025;28;849;-72
2021/12/19 09:17:38;;;;;;;;;;;;;;;4.95;100.00;101413.41;5012970;28;1011;-72
2021/12/19 09:20:05;;;;;;;;;;;;;;;4.94;100.00;101411.66;4995759;28;1911;-74
2021/12/19 09:22:33;;;;;;;;;;;;;;;5.00;100.00;101406.00;5013131;28;1380;-73
2021/12/19 09:24:59;;;;;;;;;;;;;;;4.98;100.00;101416.84;4995792;28;1308;-71
2021/12/19 09:27:26;;;;;;;;;;;;;;;4.97;100.00;101396.25;4995718;28;719;-73
2021/12/19 09:29:52;;;;;;;;;;;;;;;5.03;100.00;101413.91;4995632;28;1046;-76
2021/12/19 09:32:19;;;;;;;;;;;;;;;5.03;100.00;101412.09;5012854;28;1299;-75
2021/12/19 09:34:45;;;;;;;;;;;;;;;5.04;100.00;101412.97;5013197;28;860;-74
2021/12/19 09:37:12;;;;;;;;;;;;;;;5.04;100.00;101415.66;5013074;28;1003;-75
2021/12/19 09:39:40;;;;;;;;;;;;;;;5.06;100.00;101411.06;5012803;28;1985;-75
2021/12/19 09:42:09;;;;;;;;;;;;;;;5.05;100.00;101385.13;5013529;28;1477;-73
2021/12/19 09:44:36;;;;;;;;;;;;;;;5.09;100.00;101396.59;4995319;28;892;-75
2021/12/19 09:47:04;;;;;;;;;;;;;;;5.02;100.00;101385.25;5013091;28;677;-75
2021/12/19 09:49:32;;;;;;;;;;;;;;;5.06;100.00;101391.38;5012928;28;1037;-74
2021/12/19 09:51:59;;;;;;;;;;;;;;;5.07;100.00;101377.84;5013143;28;1279;-72
2021/12/19 09:54:25;;;;;;;;;;;;;;;5.10;100.00;101369.59;4995207;28;1265;-73
2021/12/19 09:56:53;;;;;;;;;;;;;;;5.12;100.00;101366.88;5012700;28;1430;-72
2021/12/19 09:59:20;;;;;;;;;;;;;;;5.12;100.00;101364.19;5012246;28;1981;-74
2021/12/19 10:01:47;;;;;;;;;;;;;;;5.13;100.00;101368.59;5002038;28;1472;-74
2021/12/19 10:04:27;;;;;;;;;;;;;;;5.12;100.00;101361.50;5011992;28;1554;-73
2021/12/19 10:07:03;;;;;;;;;;;;;;;5.15;100.00;101355.94;5015012;28;1597;-74
2021/12/19 10:09:29;;;;;;;;;;;;;;;5.17;100.00;101351.34;5000885;28;1412;-72
2021/12/19 10:12:09;;;;;;;;;;;;;;;5.17;100.00;101344.16;4997062;28;1598;-73
2021/12/19 10:14:36;;;;;;;;;;;;;;;5.14;100.00;101340.72;4997295;28;757;-72
2021/12/19 10:17:05;;;;;;;;;;;;;;;5.20;100.00;101351.22;5002190;28;1460;-71
2021/12/19 10:19:45;;;;;;;;;;;;;;;5.24;100.00;101338.47;5011401;28;1907;-74
2021/12/19 10:22:24;;;;;;;;;;;;;;;5.26;100.00;101332.06;5016907;28;1349;-74
2021/12/19 10:24:51;;;;;;;;;;;;;;;5.29;100.00;101325.66;5014621;28;1534;-73
2021/12/19 10:27:32;;;;;;;;;;;;;;;5.28;100.00;101327.47;4979871;28;1405;-73
2021/12/19 10:29:58;;;;;;;;;;;;;;;5.27;100.00;101325.72;4996738;28;1516;-74
2021/12/19 10:32:25;;;;;;;;;;;;;;;5.30;100.00;101320.19;5016687;28;1307;-74
2021/12/19 10:34:51;;;;;;;;;;;;;;;5.29;100.00;101314.88;5016358;28;1514;-75
2021/12/19 10:37:31;;;;;;;;;;;;;;;5.30;100.00;101328.25;5001720;28;1471;-73
2021/12/19 10:39:59;;;;;;;;;;;;;;;5.31;100.00;101323.75;4979575;28;1912;-75
2021/12/19 10:42:33;;;;;;;;;;;;;;;5.37;100.00;101323.44;4996844;28;1382;-74
2021/12/19 10:47:45;;;;;;;;;;;;;;;5.38;100.00;101306.34;4998851;28;1363;-75
2021/12/19 10:50:11;;;;;;;;;;;;;;;5.40;100.00;101312.53;5001299;28;1547;-74
2021/12/19 10:52:39;;;;;;;;;;;;;;;5.40;100.00;101303.56;5036211;28;1362;-74
2021/12/19 10:55:06;;;;;;;;;;;;;;;5.39;100.00;101291.94;5005531;28;1594;-75
2021/12/19 10:57:34;;;;;;;;;;;;;;;5.41;100.00;101292.75;4997035;28;1566;-74
2021/12/19 11:00:01;;;;;;;;;;;;;;;5.39;100.00;101278.47;5011476;28;1989;-76
2021/12/19 11:02:35;;;;;;;;;;;;;;;5.36;100.00;101276.81;5016099;28;1285;-74
2021/12/19 11:05:02;;;;;;;;;;;;;;;5.36;100.00;101267.88;5011704;28;1697;-75
2021/12/19 11:07:28;;;;;;;;;;;;;;;5.32;100.00;101263.59;4997142;28;1340;-74
2021/12/19 11:09:54;;;;;;;;;;;;;;;5.36;100.00;101271.44;5004983;28;1457;-75
2021/12/19 11:12:20;;;;;;;;;;;;;;;5.36;100.00;101262.47;5015026;28;1618;-74
2021/12/19 11:14:48;;;;;;;;;;;;;;;5.41;100.00;101273.00;5014169;28;1577;-72
2021/12/19 11:17:18;;;;;;;;;;;;;;;5.37;100.00;101258.81;5015445;28;1130;-73
2021/12/19 11:19:45;;;;;;;;;;;;;;;5.37;100.00;101256.13;5016782;28;1912;-73
2021/12/19 11:22:12;;;;;;;;;;;;;;;5.35;100.00;101252.66;4997252;28;1309;-73
2021/12/19 11:24:38;;;;;;;;;;;;;;;5.33;100.00;101251.84;5014024;28;1511;-74
2021/12/19 11:27:06;;;;;;;;;;;;;;;5.30;100.00;101231.34;5015634;28;781;-72
2021/12/19 11:29:32;;;;;;;;;;;;;;;5.31;100.00;101230.41;5015113;28;1465;-74
2021/12/19 11:32:00;;;;;;;;;;;;;;;5.31;100.00;101233.09;5015862;28;1294;-72
2021/12/19 11:34:35;;;;;;;;;;;;;;;5.30;100.00;101233.16;5009006;28;1589;-75
2021/12/19 11:37:02;;;;;;;;;;;;;;;5.27;100.00;101225.25;4995430;28;1038;-71
2021/12/19 11:39:30;;;;;;;;;;;;;;;5.25;100.00;101225.34;4996602;28;1978;-72
2021/12/19 11:42:05;;;;;;;;;;;;;;;5.24;100.00;101218.22;4996747;28;1531;-74
2021/12/19 11:44:32;;;;;;;;;;;;;;;5.27;100.00;101225.25;4995009;28;1525;-74
2021/12/19 11:47:04;;;;;;;;;;;;;;;5.28;100.00;101219.78;5014793;28;861;-73
2021/12/19 11:49:32;;;;;;;;;;;;;;;5.30;100.00;101222.41;5023919;28;1449;-74
2021/12/19 11:52:13;;;;;;;;;;;;;;;5.29;100.00;101223.34;5029284;28;1447;-74
2021/12/19 11:54:39;;;;;;;;;;;;;;;5.30;100.00;101219.72;4994316;28;1080;-73
2021/12/19 11:57:07;;;;;;;;;;;;;;;5.31;100.00;101216.94;4977546;28;958;-75
2021/12/19 11:59:33;;;;;;;;;;;;;;;5.31;100.00;101218.78;5001917;28;1911;-74
2021/12/19 12:02:21;;;;;;;;;;;;;;;5.32;100.00;101223.22;4996774;28;1556;-74
2021/12/19 12:05:09;;;;;;;;;;;;;;;5.31;100.00;101221.47;5007921;28;1650;-72
2021/12/19 12:08:00;;;;;;;;;;;;;;;5.30;100.00;101209.81;4977144;28;1069;-73
2021/12/19 12:10:26;;;;;;;;;;;;;;;5.31;100.00;101208.84;4998399;28;1508;-72
2021/12/19 12:12:52;;;;;;;;;;;;;;;5.30;100.00;101198.19;5000045;28;1507;-73
2021/12/19 12:15:32;;;;;;;;;;;;;;;5.27;100.00;101193.81;4999477;28;1495;-75
2021/12/19 12:17:59;;;;;;;;;;;;;;;5.30;100.00;101188.25;5001082;28;1507;-73
2021/12/19 12:20:32;;;;;;;;;;;;;;;5.29;100.00;101178.47;4999789;28;1979;-73
2021/12/19 12:23:08;;;;;;;;;;;;;;;5.28;100.00;101160.56;4993144;28;1567;-73
2021/12/19 12:25:40;;;;;;;;;;;;;;;5.32;100.00;101174.75;4980456;28;1649;-76
2021/12/19 12:28:09;;;;;;;;;;;;;;;5.34;100.00;101172.84;4997196;28;1391;-72
2021/12/19 12:30:37;;;;;;;;;;;;;;;5.32;100.00;101158.59;4996446;28;853;-74
2021/12/19 12:33:04;;;;;;;;;;;;;;;5.32;100.00;101158.59;5013567;28;1322;-72
2021/12/19 12:35:33;;;;;;;;;;;;;;;5.32;100.00;101159.47;5013267;28;1022;-72
2021/12/19 12:38:00;;;;;;;;;;;;;;;5.34;100.00;101162.06;5014623;28;1200;-74
2021/12/19 12:40:29;;;;;;;;;;;;;;;5.30;100.00;101163.19;4995558;28;1983;-74
2021/12/19 12:43:05;;;;;;;;;;;;;;;5.34;100.00;101157.56;5012778;28;1391;-73
2021/12/19 12:45:46;;;;;;;;;;;;;;;5.32;100.00;101148.69;4993595;28;1288;-73
2021/12/19 12:48:13;;;;;;;;;;;;;;;5.37;100.00;101148.44;4991985;28;1348;-74
2021/12/19 12:50:49;;;;;;;;;;;;;;;5.39;100.00;101151.94;5013189;28;1375;-74
2021/12/19 12:53:27;;;;;;;;;;;;;;;5.41;100.00;101146.47;5012996;28;1288;-72
2021/12/19 12:56:00;;;;;;;;;;;;;;;5.40;100.00;101144.72;5010451;28;1229;-73
2021/12/19 12:58:27;;;;;;;;;;;;;;;5.38;100.00;101136.72;5010960;28;1236;-75
2021/12/19 13:01:08;;;;;;;;;;;;;;;5.34;100.00;101129.75;5013384;28;1894;-73
2021/12/19 13:03:34;;;;;;;;;;;;;;;5.35;100.00;101123.44;5011507;28;1512;-73
2021/12/19 13:06:02;;;;;;;;;;;;;;;5.33;100.00;101117.25;4994010;28;1465;-72
2021/12/19 13:08:28;;;;;;;;;;;;;;;5.39;100.00;101116.94;5023039;28;1188;-73
2021/12/19 13:10:55;;;;;;;;;;;;;;;5.37;100.00;101118.81;5027727;28;1324;-72
2021/12/19 13:13:25;;;;;;;;;;;;;;;5.38;100.00;101109.78;5013613;28;971;-73
2021/12/19 13:15:51;;;;;;;;;;;;;;;5.33;100.00;101110.06;5013087;28;941;-73
2021/12/19 13:18:17;;;;;;;;;;;;;;;5.36;100.00;101106.34;5013375;28;1415;-73
2021/12/19 13:20:44;;;;;;;;;;;;;;;5.39;100.00;101113.38;5011918;28;1978;-72
2021/12/19 13:23:11;;;;;;;;;;;;;;;5.35;100.00;101120.75;4995905;28;1464;-74
2021/12/19 13:25:40;;;;;;;;;;;;;;;5.38;100.00;101120.56;4999524;28;1562;-78
2021/12/19 13:28:07;;;;;;;;;;;;;;;5.36;100.00;101115.25;5013168;28;1432;-71
2021/12/19 13:30:34;;;;;;;;;;;;;;;5.36;100.00;101111.72;5000414;28;1566;-72
2021/12/19 13:33:01;;;;;;;;;;;;;;;5.38;100.00;101109.78;4995323;28;1530;-71
2021/12/19 13:35:28;;;;;;;;;;;;;;;5.36;100.00;101099.13;4996719;28;1499;-74
2021/12/19 13:37:59;;;;;;;;;;;;;;;5.38;100.00;101104.41;5011081;28;1566;-71
2021/12/19 13:40:28;;;;;;;;;;;;;;;5.37;100.00;101102.66;5017164;28;1978;-74
2021/12/19 13:42:55;;;;;;;;;;;;;;;5.36;100.00;101100.94;5001467;28;1515;-72
2021/12/19 13:45:37;;;;;;;;;;;;;;;5.39;100.00;101119.63;4993426;28;1011;-71